AirNav   Air Wisconsin Up To $57,000 Bonus
 
 1427 users online  

6FL5 Twin Cities Hospital Heliport
Niceville, Florida, USA

GOING TO NICEVILLE?


FAA INFORMATION EFFECTIVE 05 DECEMBER 2019

Location

FAA Identifier: 6FL5
Lat/Long: 30-32-03.2100N 086-29-48.4000W
30-32.053500N 086-29.806667W
30.5342250,-86.4967778
(estimated)
Elevation: 84 ft. / 26 m (estimated)
From city: 1 mile NW of NICEVILLE, FL
Time zone: UTC -6 (UTC -5 during Daylight Saving Time)
Zip code: 32578

Heliport Operations

Heliport use: Private use. Permission required prior to landing
Activation date: 03/2004
Control tower: no
ARTCC: JACKSONVILLE CENTER
FSS: ANNISTON FLIGHT SERVICE STATION
Attendance: UNATNDD
Segmented circle: no
Lights: SS-SR

Heliport Communications

WX ASOS at DTS (8 nm S): PHONE 850-654-7128
WX ASOS at CEW (15 nm N): 119.275 (850-682-1237)

Nearby radio navigation aids

VOR radial/distance  VOR name  Freq  Var
CEWr149/19.9CRESTVIEW VORTAC115.9003E

 
NDB name  Hdg/Dist  Freq  Var  ID
PICKENS083/35.732602WPKZ .--. -.- --..
LYNNE293/39.027804WPFN .--. ..-. -.

Heliport Services

Runway Information

Helipad H1

Dimensions: 40 x 40 ft. / 12 x 12 m
Surface: concrete
Runway edge lights: PERI
Traffic pattern: leftleft

Heliport Ownership and Management from official FAA records

Ownership: Privately-owned
Owner: TWIN CITIES HOSPITAL
2190 HWY 85 NORTH
NICEVILLE, FL 32578
Phone 850-729-9441
Manager: HUGO GARZA
2190 HWY 85 NORTH
NICEVILLE, FL 32578
Phone 850-729-9441

Additional Remarks

FOR CD CTC EGLIN APCH 850-882-9152 OR 850-882-9151.

Instrument Procedures

There are no published instrument procedures at 6FL5.

Some nearby airports with instrument procedures:

KVPS - Eglin Air Force Base/Destin-Fort Walton Beach Airport (3 nm SW)
KEGI - Duke Field (Eglin AF Aux Nr 3) Airport (7 nm N)
KDTS - Destin Executive Airport (8 nm S)
KHRT - Hurlburt Field Airport (12 nm SW)
KCEW - Bob Sikes Airport (15 nm N)
 
Loc | Ops | Rwys | IFR | FBO | Links
Com | Nav | Svcs | Stats | Notes
Area around 6FL5 (Twin Cities Hospital Heliport)
 
Road maps at: MapQuest Bing Google
 
Aerial photo
No photo
 
Sectional chart

 
Airport distance calculator
Flying to Twin Cities Hospital Heliport? Find the distance to fly.

From to 6FL5

Sunrise and sunset
Times for 09-Dec-2019
 Local
(UTC-6)
 Zulu
(UTC)
Morning civil twilight06:0612:06
Sunrise06:3312:33
Sunset16:4422:44
Evening civil twilight17:1123:11

Current date and time
Zulu (UTC)  09-Dec-2019 18:39:44
Local (UTC-6)  09-Dec-2019 12:39:44
 
METAR
KVPS 
4nm S 
091456Z AUTO 22006KT 10SM CLR 19/19 A3004 RMK AO2 SLP179 T01890189 50009 $
KEGI 
6nm N 
091456Z AUTO 23006KT 10SM CLR 20/18 A3005 RMK AO2 SLP176 T01970175 50011 $
KDTS 
8nm S 
091754Z VRB05KT 10SM CLR 23/17 A3002 RMK AO2 T02280167
KHRT 
11nm SW 
091456Z 25004KT 10SM FEW040 SCT160 OVC300 20/18 A3004 RMK AO2A SLP174 T01950176 52012 $
KCEW 
14nm N 
091753Z AUTO 26007KT 10SM CLR 23/14 A3002 RMK AO2 SLP163 T02280139 10239 20167 58014
TAF
KVPS 
4nm S 
091441Z 0914/1016 22006KT 9999 BKN020 QNH3000INS BECMG 0915/0916 25009KT 9999 BKN025 QNH3001INS BECMG 0916/0917 22007KT 9999 BKN030 QNH3001INS BECMG 0923/0924 19006KT 9999 SCT025 SCT035 BKN200 QNH3000INS BECMG 1007/1008 18009KT 9000 BR FEW005 BKN020 QNH3001INS TEMPO 1013/1016 1600 -DZ BR OVC020 TX22/0921Z TN16/1013Z
KEGI 
6nm N 
091415Z 0914/1016 18007KT 9999 SCT020 BKN250 QNH3001INS BECMG 0916/0917 22012KT 9999 SCT015 BKN030 BKN250 QNH3000INS BECMG 0923/0924 18006KT 9999 SCT025 BKN040 BKN250 QNH3001INS BECMG 1006/1007 19008KT 8000 BR BKN010 OVC025 QNH3002INS TX23/0920Z TN18/0914Z
KHRT 
11nm SW 
091444Z 0914/1016 21004KT 9999 SCT015 BKN250 QNH3001INS BECMG 0917/0918 21011KT 9999 SCT015 BKN035 BKN200 QNH2996INS BECMG 0922/0923 22008KT 9999 SCT025 BKN050 QNH3003INS BECMG 1014/1015 18008KT 9999 BKN040 QNH3001INS TX23/0920Z TN19/1011Z
NOTAMs
Click for the latest NOTAMs
NOTAMs are issued by the DoD/FAA and will open in a separate window not controlled by AirNav.

 

 
 

Would you like to see your business listed on this page?

 If your business provides an interesting product or service to pilots, flight crews, aircraft, or users of the Twin Cities Hospital Heliport, you should consider listing it here.  To start the listing process, click on the button below
 
Add a business
 

Other Pages about Twin Cities Hospital Heliport

Update a link
 
Copyright © AirNav, LLC. All rights reserved. Privacy Policy  Contact